sensor_id;sensor_type;location;lat;lon;timestamp;pressure;altitude;pressure_sealevel;temperature;humidity
23261;BME280;11799;47.740;-3.390;2023-08-30T00:02:23;101149.38;;;17.05;100.00
23261;BME280;11799;47.740;-3.390;2023-08-30T00:04:49;101145.63;;;16.98;100.00
23261;BME280;11799;47.740;-3.390;2023-08-30T00:07:14;101145.78;;;16.97;100.00
23261;BME280;11799;47.740;-3.390;2023-08-30T00:09:40;101142.28;;;16.96;100.00
23261;BME280;11799;47.740;-3.390;2023-08-30T00:12:06;101138.75;;;16.96;100.00
23261;BME280;11799;47.740;-3.390;2023-08-30T00:14:31;101132.06;;;16.92;100.00
23261;BME280;11799;47.740;-3.390;2023-08-30T00:16:58;101125.34;;;16.88;100.00
23261;BME280;11799;47.740;-3.390;2023-08-30T00:19:23;101127.19;;;16.87;100.00
23261;BME280;11799;47.740;-3.390;2023-08-30T00:21:49;101117.94;;;16.81;100.00
23261;BME280;11799;47.740;-3.390;2023-08-30T00:24:14;101121.47;;;16.82;100.00
23261;BME280;11799;47.740;-3.390;2023-08-30T00:26:40;101112.78;;;16.80;100.00
23261;BME280;11799;47.740;-3.390;2023-08-30T00:29:05;101114.91;;;16.76;100.00
23261;BME280;11799;47.740;-3.390;2023-08-30T00:31:31;101107.25;;;16.73;100.00
23261;BME280;11799;47.740;-3.390;2023-08-30T00:33:56;101109.22;;;16.71;100.00
23261;BME280;11799;47.740;-3.390;2023-08-30T00:36:22;101099.28;;;16.64;100.00
23261;BME280;11799;47.740;-3.390;2023-08-30T00:38:48;101089.59;;;16.63;100.00
23261;BME280;11799;47.740;-3.390;2023-08-30T00:41:14;101096.91;;;16.61;100.00
23261;BME280;11799;47.740;-3.390;2023-08-30T00:43:40;101098.06;;;16.58;100.00
23261;BME280;11799;47.740;-3.390;2023-08-30T00:46:06;101102.53;;;16.58;100.00
23261;BME280;11799;47.740;-3.390;2023-08-30T00:48:32;101102.41;;;16.59;100.00
23261;BME280;11799;47.740;-3.390;2023-08-30T00:50:58;101082.81;;;16.50;100.00
23261;BME280;11799;47.740;-3.390;2023-08-30T00:53:23;101094.00;;;16.54;100.00
23261;BME280;11799;47.740;-3.390;2023-08-30T00:55:49;101089.13;;;16.49;100.00
23261;BME280;11799;47.740;-3.390;2023-08-30T00:58:14;101088.81;;;16.52;100.00
23261;BME280;11799;47.740;-3.390;2023-08-30T01:00:40;101088.44;;;16.47;100.00
23261;BME280;11799;47.740;-3.390;2023-08-30T01:03:06;101086.91;;;16.45;100.00
23261;BME280;11799;47.740;-3.390;2023-08-30T01:05:35;101089.44;;;16.46;100.00
23261;BME280;11799;47.740;-3.390;2023-08-30T01:08:00;101078.81;;;16.37;100.00
23261;BME280;11799;47.740;-3.390;2023-08-30T01:10:56;101097.03;;;16.41;100.00
23261;BME280;11799;47.740;-3.390;2023-08-30T01:13:19;101103.19;;;16.42;100.00
23261;BME280;11799;47.740;-3.390;2023-08-30T01:15:51;101094.22;;;16.43;100.00
23261;BME280;11799;47.740;-3.390;2023-08-30T01:18:22;101096.06;;;16.42;100.00
23261;BME280;11799;47.740;-3.390;2023-08-30T01:20:52;101098.72;;;16.42;100.00
23261;BME280;11799;47.740;-3.390;2023-08-30T01:23:48;101092.53;;;16.42;100.00
23261;BME280;11799;47.740;-3.390;2023-08-30T01:26:39;101097.19;;;16.40;100.00
23261;BME280;11799;47.740;-3.390;2023-08-30T01:29:08;101092.00;;;16.38;100.00
23261;BME280;11799;47.740;-3.390;2023-08-30T01:31:36;101091.47;;;16.35;100.00
23261;BME280;11799;47.740;-3.390;2023-08-30T01:34:04;101099.47;;;16.35;100.00
23261;BME280;11799;47.740;-3.390;2023-08-30T01:36:30;101097.09;;;16.32;100.00
23261;BME280;11799;47.740;-3.390;2023-08-30T01:38:58;101104.09;;;16.33;100.00
23261;BME280;11799;47.740;-3.390;2023-08-30T01:41:26;101105.78;;;16.34;100.00
23261;BME280;11799;47.740;-3.390;2023-08-30T01:43:53;101107.06;;;16.30;100.00
23261;BME280;11799;47.740;-3.390;2023-08-30T01:46:19;101100.91;;;16.29;100.00
23261;BME280;11799;47.740;-3.390;2023-08-30T01:48:47;101103.72;;;16.28;100.00
23261;BME280;11799;47.740;-3.390;2023-08-30T01:51:16;101095.88;;;16.26;100.00
23261;BME280;11799;47.740;-3.390;2023-08-30T01:53:43;101097.69;;;16.26;100.00
23261;BME280;11799;47.740;-3.390;2023-08-30T01:56:09;101095.03;;;16.26;100.00
23261;BME280;11799;47.740;-3.390;2023-08-30T01:58:35;101100.22;;;16.27;100.00
23261;BME280;11799;47.740;-3.390;2023-08-30T02:01:01;101083.53;;;16.25;100.00
23261;BME280;11799;47.740;-3.390;2023-08-30T02:03:27;101083.38;;;16.27;100.00
23261;BME280;11799;47.740;-3.390;2023-08-30T02:06:11;101085.34;;;16.25;100.00
23261;BME280;11799;47.740;-3.390;2023-08-30T02:08:41;101095.09;;;16.16;100.00
23261;BME280;11799;47.740;-3.390;2023-08-30T02:11:18;101086.56;;;16.12;100.00
23261;BME280;11799;47.740;-3.390;2023-08-30T02:13:45;101086.19;;;16.07;100.00
23261;BME280;11799;47.740;-3.390;2023-08-30T02:16:12;101082.81;;;16.05;100.00
23261;BME280;11799;47.740;-3.390;2023-08-30T02:18:41;101088.44;;;16.02;100.00
23261;BME280;11799;47.740;-3.390;2023-08-30T02:21:07;101096.03;;;15.97;100.00
23261;BME280;11799;47.740;-3.390;2023-08-30T02:23:32;101105.31;;;15.93;100.00
23261;BME280;11799;47.740;-3.390;2023-08-30T02:25:59;101087.84;;;15.81;100.00
23261;BME280;11799;47.740;-3.390;2023-08-30T02:28:24;101097.06;;;15.87;100.00
23261;BME280;11799;47.740;-3.390;2023-08-30T02:30:53;101100.00;;;15.83;100.00
23261;BME280;11799;47.740;-3.390;2023-08-30T02:33:19;101097.50;;;15.82;100.00
23261;BME280;11799;47.740;-3.390;2023-08-30T02:35:44;101094.28;;;15.78;100.00
23261;BME280;11799;47.740;-3.390;2023-08-30T02:38:10;101104.25;;;15.76;100.00
23261;BME280;11799;47.740;-3.390;2023-08-30T02:40:36;101109.16;;;15.71;100.00
23261;BME280;11799;47.740;-3.390;2023-08-30T02:43:01;101104.81;;;15.70;100.00
23261;BME280;11799;47.740;-3.390;2023-08-30T02:45:27;101103.28;;;15.68;100.00
23261;BME280;11799;47.740;-3.390;2023-08-30T02:47:55;101102.59;;;15.66;100.00
23261;BME280;11799;47.740;-3.390;2023-08-30T02:50:22;101102.59;;;15.66;100.00
23261;BME280;11799;47.740;-3.390;2023-08-30T02:52:48;101094.53;;;15.58;100.00
23261;BME280;11799;47.740;-3.390;2023-08-30T02:55:13;101094.22;;;15.61;100.00
23261;BME280;11799;47.740;-3.390;2023-08-30T02:57:39;101096.56;;;15.64;100.00
23261;BME280;11799;47.740;-3.390;2023-08-30T03:00:05;101098.53;;;15.62;100.00
23261;BME280;11799;47.740;-3.390;2023-08-30T03:02:32;101097.88;;;15.60;100.00
23261;BME280;11799;47.740;-3.390;2023-08-30T03:04:59;101094.53;;;15.58;100.00
23261;BME280;11799;47.740;-3.390;2023-08-30T03:07:25;101089.06;;;15.49;100.00
23261;BME280;11799;47.740;-3.390;2023-08-30T03:09:52;101106.16;;;15.57;100.00
23261;BME280;11799;47.740;-3.390;2023-08-30T03:12:19;101098.88;;;15.59;100.00
23261;BME280;11799;47.740;-3.390;2023-08-30T03:14:45;101092.13;;;15.55;100.00
23261;BME280;11799;47.740;-3.390;2023-08-30T03:17:11;101095.06;;;15.51;100.00
23261;BME280;11799;47.740;-3.390;2023-08-30T03:19:37;101096.34;;;15.47;100.00
23261;BME280;11799;47.740;-3.390;2023-08-30T03:22:03;101102.78;;;15.45;100.00
23261;BME280;11799;47.740;-3.390;2023-08-30T03:24:28;101107.41;;;15.43;100.00
23261;BME280;11799;47.740;-3.390;2023-08-30T03:26:54;101111.63;;;15.36;100.00
23261;BME280;11799;47.740;-3.390;2023-08-30T03:29:19;101108.13;;;15.35;100.00
23261;BME280;11799;47.740;-3.390;2023-08-30T03:31:47;101112.75;;;15.33;100.00
23261;BME280;11799;47.740;-3.390;2023-08-30T03:34:13;101117.38;;;15.31;100.00
23261;BME280;11799;47.740;-3.390;2023-08-30T03:36:40;101105.75;;;15.23;100.00
23261;BME280;11799;47.740;-3.390;2023-08-30T03:39:05;101117.94;;;15.25;100.00
23261;BME280;11799;47.740;-3.390;2023-08-30T03:41:32;101118.78;;;15.26;100.00
23261;BME280;11799;47.740;-3.390;2023-08-30T03:43:59;101117.25;;;15.23;100.00
23261;BME280;11799;47.740;-3.390;2023-08-30T03:46:24;101106.88;;;15.20;100.00
23261;BME280;11799;47.740;-3.390;2023-08-30T03:48:50;101114.03;;;15.19;100.00
23261;BME280;11799;47.740;-3.390;2023-08-30T03:51:16;101109.97;;;15.15;100.00
23261;BME280;11799;47.740;-3.390;2023-08-30T03:53:42;101109.97;;;15.15;100.00
23261;BME280;11799;47.740;-3.390;2023-08-30T03:56:07;101111.94;;;15.13;100.00
23261;BME280;11799;47.740;-3.390;2023-08-30T03:58:33;101113.06;;;15.11;100.00
23261;BME280;11799;47.740;-3.390;2023-08-30T04:00:58;101124.13;;;15.06;100.00
23261;BME280;11799;47.740;-3.390;2023-08-30T04:03:24;101115.44;;;15.04;100.00
23261;BME280;11799;47.740;-3.390;2023-08-30T04:05:55;101111.56;;;14.99;100.00
23261;BME280;11799;47.740;-3.390;2023-08-30T04:08:21;101119.38;;;15.00;100.00
23261;BME280;11799;47.740;-3.390;2023-08-30T04:10:52;101123.88;;;15.00;100.00
23261;BME280;11799;47.740;-3.390;2023-08-30T04:13:18;101116.03;;;14.98;100.00
23261;BME280;11799;47.740;-3.390;2023-08-30T04:15:43;101108.59;;;14.92;100.00
23261;BME280;11799;47.740;-3.390;2023-08-30T04:18:09;101118.97;;;14.95;100.00
23261;BME280;11799;47.740;-3.390;2023-08-30T04:20:35;101118.41;;;14.92;100.00
23261;BME280;11799;47.740;-3.390;2023-08-30T04:23:01;101111.69;;;14.88;100.00
23261;BME280;11799;47.740;-3.390;2023-08-30T04:25:33;101104.97;;;14.83;100.00
23261;BME280;11799;47.740;-3.390;2023-08-30T04:28:00;101109.88;;;14.88;100.00
23261;BME280;11799;47.740;-3.390;2023-08-30T04:30:25;101114.22;;;14.89;100.00
23261;BME280;11799;47.740;-3.390;2023-08-30T04:32:51;101118.41;;;14.82;100.00
23261;BME280;11799;47.740;-3.390;2023-08-30T04:35:17;101115.88;;;14.80;100.00
23261;BME280;11799;47.740;-3.390;2023-08-30T04:37:43;101118.25;;;14.83;100.00
23261;BME280;11799;47.740;-3.390;2023-08-30T04:40:09;101110.84;;;14.87;100.00
23261;BME280;11799;47.740;-3.390;2023-08-30T04:42:36;101115.31;;;14.86;100.00
23261;BME280;11799;47.740;-3.390;2023-08-30T04:45:03;101113.34;;;14.79;100.00
23261;BME280;11799;47.740;-3.390;2023-08-30T04:47:29;101114.19;;;14.79;100.00
23261;BME280;11799;47.740;-3.390;2023-08-30T04:49:56;101114.06;;;14.71;100.00
23261;BME280;11799;47.740;-3.390;2023-08-30T04:52:21;101119.78;;;14.76;100.00
23261;BME280;11799;47.740;-3.390;2023-08-30T04:54:48;101122.59;;;14.75;100.00
23261;BME280;11799;47.740;-3.390;2023-08-30T04:57:17;101120.63;;;14.77;100.00
23261;BME280;11799;47.740;-3.390;2023-08-30T04:59:44;101109.03;;;14.78;100.00
23261;BME280;11799;47.740;-3.390;2023-08-30T05:02:11;101098.94;;;14.72;100.00
23261;BME280;11799;47.740;-3.390;2023-08-30T05:04:44;101114.63;;;14.75;100.00
23261;BME280;11799;47.740;-3.390;2023-08-30T05:07:10;101117.28;;;14.75;100.00
23261;BME280;11799;47.740;-3.390;2023-08-30T05:09:37;101125.38;;;14.73;100.00
23261;BME280;11799;47.740;-3.390;2023-08-30T05:12:07;101129.59;;;14.76;100.00
23261;BME280;11799;47.740;-3.390;2023-08-30T05:14:32;101121.88;;;14.73;100.00
23261;BME280;11799;47.740;-3.390;2023-08-30T05:16:59;101119.09;;;14.74;100.00
23261;BME280;11799;47.740;-3.390;2023-08-30T05:19:25;101119.78;;;14.76;100.00
23261;BME280;11799;47.740;-3.390;2023-08-30T05:21:50;101124.13;;;14.77;100.00
23261;BME280;11799;47.740;-3.390;2023-08-30T05:24:20;101112.94;;;14.64;100.00
23261;BME280;11799;47.740;-3.390;2023-08-30T05:26:46;101137.84;;;14.73;100.00
23261;BME280;11799;47.740;-3.390;2023-08-30T05:29:13;101136.72;;;14.75;100.00
23261;BME280;11799;47.740;-3.390;2023-08-30T05:31:39;101138.41;;;14.76;100.00
23261;BME280;11799;47.740;-3.390;2023-08-30T05:34:24;101135.03;;;14.74;100.00
23261;BME280;11799;47.740;-3.390;2023-08-30T05:37:23;101137.28;;;14.69;100.00
23261;BME280;11799;47.740;-3.390;2023-08-30T05:40:09;101137.56;;;14.66;100.00
23261;BME280;11799;47.740;-3.390;2023-08-30T05:42:35;101135.88;;;14.65;100.00
23261;BME280;11799;47.740;-3.390;2023-08-30T05:45:01;101138.38;;;14.67;100.00
23261;BME280;11799;47.740;-3.390;2023-08-30T05:47:26;101133.06;;;14.67;100.00
23261;BME280;11799;47.740;-3.390;2023-08-30T05:49:52;101134.06;;;14.66;100.00
23261;BME280;11799;47.740;-3.390;2023-08-30T05:52:17;101138.53;;;14.65;100.00
23261;BME280;11799;47.740;-3.390;2023-08-30T05:54:43;101133.91;;;14.67;100.00
23261;BME280;11799;47.740;-3.390;2023-08-30T05:57:09;101130.69;;;14.64;100.00
23261;BME280;11799;47.740;-3.390;2023-08-30T05:59:35;101128.88;;;14.64;100.00
23261;BME280;11799;47.740;-3.390;2023-08-30T06:02:01;101140.78;;;14.70;100.00
23261;BME280;11799;47.740;-3.390;2023-08-30T06:04:27;101135.88;;;14.65;100.00
23261;BME280;11799;47.740;-3.390;2023-08-30T06:06:52;101132.38;;;14.65;100.00
23261;BME280;11799;47.740;-3.390;2023-08-30T06:09:18;101137.25;;;14.60;100.00
23261;BME280;11799;47.740;-3.390;2023-08-30T06:11:43;101137.81;;;14.63;100.00
23261;BME280;11799;47.740;-3.390;2023-08-30T06:14:09;101135.88;;;14.65;100.00
23261;BME280;11799;47.740;-3.390;2023-08-30T06:16:35;101141.59;;;14.61;100.00
23261;BME280;11799;47.740;-3.390;2023-08-30T06:19:00;101136.41;;;14.59;100.00
23261;BME280;11799;47.740;-3.390;2023-08-30T06:21:26;101138.38;;;14.67;100.00
23261;BME280;11799;47.740;-3.390;2023-08-30T06:23:51;101129.00;;;14.63;100.00
23261;BME280;11799;47.740;-3.390;2023-08-30T06:26:17;101131.69;;;14.72;100.00
23261;BME280;11799;47.740;-3.390;2023-08-30T06:28:43;101128.03;;;14.73;100.00
23261;BME280;11799;47.740;-3.390;2023-08-30T06:31:10;101111.66;;;14.68;100.00
23261;BME280;11799;47.740;-3.390;2023-08-30T06:33:35;101111.41;;;14.81;100.00
23261;BME280;11799;47.740;-3.390;2023-08-30T06:36:01;101118.53;;;14.80;100.00
23261;BME280;11799;47.740;-3.390;2023-08-30T06:38:27;101115.47;;;14.85;100.00
23261;BME280;11799;47.740;-3.390;2023-08-30T06:40:52;101118.25;;;14.83;100.00
23261;BME280;11799;47.740;-3.390;2023-08-30T06:43:19;101117.28;;;14.84;100.00
23261;BME280;11799;47.740;-3.390;2023-08-30T06:45:44;101117.44;;;14.93;100.00
23261;BME280;11799;47.740;-3.390;2023-08-30T06:48:10;101125.41;;;14.93;100.00
23261;BME280;11799;47.740;-3.390;2023-08-30T06:50:36;101125.53;;;14.91;100.00
23261;BME280;11799;47.740;-3.390;2023-08-30T06:53:02;101124.28;;;14.95;100.00
23261;BME280;11799;47.740;-3.390;2023-08-30T06:55:28;101123.28;;;15.06;100.00
23261;BME280;11799;47.740;-3.390;2023-08-30T06:57:54;101126.34;;;15.11;100.00
23261;BME280;11799;47.740;-3.390;2023-08-30T07:00:20;101133.06;;;15.15;100.00
23261;BME280;11799;47.740;-3.390;2023-08-30T07:02:46;101128.88;;;15.22;100.00
23261;BME280;11799;47.740;-3.390;2023-08-30T07:05:14;101135.44;;;15.28;100.00
23261;BME280;11799;47.740;-3.390;2023-08-30T07:07:40;101140.63;;;15.29;100.00
23261;BME280;11799;47.740;-3.390;2023-08-30T07:10:06;101146.91;;;15.38;100.00
23261;BME280;11799;47.740;-3.390;2023-08-30T07:12:32;101147.88;;;15.46;100.00
23261;BME280;11799;47.740;-3.390;2023-08-30T07:14:57;101152.50;;;15.54;100.00
23261;BME280;11799;47.740;-3.390;2023-08-30T07:17:23;101148.28;;;15.61;100.00
23261;BME280;11799;47.740;-3.390;2023-08-30T07:19:49;101132.16;;;15.63;100.00
23261;BME280;11799;47.740;-3.390;2023-08-30T07:22:15;101141.22;;;15.79;100.00
23261;BME280;11799;47.740;-3.390;2023-08-30T07:24:44;101138.63;;;16.07;100.00
23261;BME280;11799;47.740;-3.390;2023-08-30T07:27:10;101142.19;;;16.88;100.00
23261;BME280;11799;47.740;-3.390;2023-08-30T07:29:38;101125.69;;;17.72;100.00
23261;BME280;11799;47.740;-3.390;2023-08-30T07:32:05;101120.31;;;18.48;100.00
23261;BME280;11799;47.740;-3.390;2023-08-30T07:34:31;101110.72;;;18.96;100.00
23261;BME280;11799;47.740;-3.390;2023-08-30T07:36:56;101100.97;;;19.43;100.00
23261;BME280;11799;47.740;-3.390;2023-08-30T07:39:22;101094.03;;;19.82;100.00
23261;BME280;11799;47.740;-3.390;2023-08-30T07:41:47;101100.16;;;20.29;100.00
23261;BME280;11799;47.740;-3.390;2023-08-30T07:44:13;101097.78;;;20.34;100.00
23261;BME280;11799;47.740;-3.390;2023-08-30T07:46:38;101095.63;;;20.30;100.00
23261;BME280;11799;47.740;-3.390;2023-08-30T07:49:04;101095.63;;;20.30;100.00
23261;BME280;11799;47.740;-3.390;2023-08-30T07:51:29;101090.56;;;20.43;100.00
23261;BME280;11799;47.740;-3.390;2023-08-30T07:53:55;101097.31;;;20.31;100.00
23261;BME280;11799;47.740;-3.390;2023-08-30T07:56:20;101102.50;;;21.09;100.00
23261;BME280;11799;47.740;-3.390;2023-08-30T07:58:46;101093.41;;;22.21;100.00
23261;BME280;11799;47.740;-3.390;2023-08-30T08:01:11;101084.84;;;22.90;100.00
23261;BME280;11799;47.740;-3.390;2023-08-30T08:03:37;101093.38;;;22.93;100.00
23261;BME280;11799;47.740;-3.390;2023-08-30T08:06:03;101097.31;;;23.47;100.00
23261;BME280;11799;47.740;-3.390;2023-08-30T08:08:28;101100.03;;;24.22;100.00
23261;BME280;11799;47.740;-3.390;2023-08-30T08:10:54;101096.44;;;24.89;100.00
23261;BME280;11799;47.740;-3.390;2023-08-30T08:13:19;101096.88;;;25.46;100.00
23261;BME280;11799;47.740;-3.390;2023-08-30T08:15:45;101098.13;;;26.21;100.00
23261;BME280;11799;47.740;-3.390;2023-08-30T08:18:11;101099.75;;;26.73;100.00
23261;BME280;11799;47.740;-3.390;2023-08-30T08:20:36;101104.53;;;26.71;100.00
23261;BME280;11799;47.740;-3.390;2023-08-30T08:23:03;101104.31;;;25.90;100.00
23261;BME280;11799;47.740;-3.390;2023-08-30T08:25:28;101101.91;;;24.96;100.00
23261;BME280;11799;47.740;-3.390;2023-08-30T08:27:54;101103.72;;;24.08;100.00
23261;BME280;11799;47.740;-3.390;2023-08-30T08:30:20;101098.44;;;23.31;100.00
23261;BME280;11799;47.740;-3.390;2023-08-30T08:32:46;101104.34;;;22.92;100.00
23261;BME280;11799;47.740;-3.390;2023-08-30T08:35:15;101107.00;;;22.49;100.00
23261;BME280;11799;47.740;-3.390;2023-08-30T08:37:41;101107.63;;;22.15;100.00
23261;BME280;11799;47.740;-3.390;2023-08-30T08:40:07;101116.06;;;21.83;100.00
23261;BME280;11799;47.740;-3.390;2023-08-30T08:42:36;101133.28;;;21.59;100.00
23261;BME280;11799;47.740;-3.390;2023-08-30T08:45:03;101135.09;;;21.29;100.00
23261;BME280;11799;47.740;-3.390;2023-08-30T08:47:31;101130.38;;;21.08;100.00
23261;BME280;11799;47.740;-3.390;2023-08-30T08:49:57;101134.06;;;20.61;100.00
23261;BME280;11799;47.740;-3.390;2023-08-30T08:52:24;101144.84;;;20.53;100.00
23261;BME280;11799;47.740;-3.390;2023-08-30T08:54:50;101142.88;;;20.47;100.00
23261;BME280;11799;47.740;-3.390;2023-08-30T08:57:17;101146.41;;;20.39;100.00
23261;BME280;11799;47.740;-3.390;2023-08-30T08:59:42;101146.84;;;20.20;100.00
23261;BME280;11799;47.740;-3.390;2023-08-30T09:02:10;101148.53;;;20.13;100.00
23261;BME280;11799;47.740;-3.390;2023-08-30T09:04:39;101149.56;;;20.04;100.00
23261;BME280;11799;47.740;-3.390;2023-08-30T09:07:04;101147.41;;;19.99;100.00
23261;BME280;11799;47.740;-3.390;2023-08-30T09:09:30;101150.59;;;19.95;100.00
23261;BME280;11799;47.740;-3.390;2023-08-30T09:11:56;101142.59;;;19.87;100.00
23261;BME280;11799;47.740;-3.390;2023-08-30T09:14:21;101133.72;;;19.78;100.00
23261;BME280;11799;47.740;-3.390;2023-08-30T09:17:01;101135.56;;;19.77;100.00
23261;BME280;11799;47.740;-3.390;2023-08-30T09:19:27;101149.31;;;19.74;100.00
23261;BME280;11799;47.740;-3.390;2023-08-30T09:21:57;101147.13;;;19.70;100.00
23261;BME280;11799;47.740;-3.390;2023-08-30T09:24:24;101156.34;;;19.67;100.00
23261;BME280;11799;47.740;-3.390;2023-08-30T09:26:51;101143.00;;;19.51;100.00
23261;BME280;11799;47.740;-3.390;2023-08-30T09:29:18;101141.66;;;19.55;100.00
23261;BME280;11799;47.740;-3.390;2023-08-30T09:31:44;101150.31;;;19.73;100.00
23261;BME280;11799;47.740;-3.390;2023-08-30T09:34:10;101139.34;;;20.07;100.00
23261;BME280;11799;47.740;-3.390;2023-08-30T09:36:38;101152.28;;;19.96;100.00
23261;BME280;11799;47.740;-3.390;2023-08-30T09:39:11;101155.16;;;19.86;100.00
23261;BME280;11799;47.740;-3.390;2023-08-30T09:41:41;101155.34;;;19.68;100.00
23261;BME280;11799;47.740;-3.390;2023-08-30T09:44:13;101164.94;;;19.63;100.00
23261;BME280;11799;47.740;-3.390;2023-08-30T09:46:53;101157.25;;;19.52;100.00
23261;BME280;11799;47.740;-3.390;2023-08-30T09:49:20;101170.63;;;19.52;100.00
23261;BME280;11799;47.740;-3.390;2023-08-30T09:51:47;101160.56;;;19.37;100.00
23261;BME280;11799;47.740;-3.390;2023-08-30T09:54:17;101163.41;;;19.44;100.00
23261;BME280;11799;47.740;-3.390;2023-08-30T09:56:44;101181.97;;;19.45;100.00
23261;BME280;11799;47.740;-3.390;2023-08-30T09:59:12;101172.28;;;19.36;100.00
23261;BME280;11799;47.740;-3.390;2023-08-30T10:01:39;101180.47;;;19.35;100.00
23261;BME280;11799;47.740;-3.390;2023-08-30T10:04:09;101191.03;;;19.36;100.00
23261;BME280;11799;47.740;-3.390;2023-08-30T10:06:36;101180.81;;;19.40;100.00
23261;BME280;11799;47.740;-3.390;2023-08-30T10:09:03;101192.03;;;19.35;100.00
23261;BME280;11799;47.740;-3.390;2023-08-30T10:11:33;101167.75;;;19.29;100.00
23261;BME280;11799;47.740;-3.390;2023-08-30T10:14:00;101174.78;;;19.46;100.00
23261;BME280;11799;47.740;-3.390;2023-08-30T10:16:26;101158.72;;;19.46;100.00
23261;BME280;11799;47.740;-3.390;2023-08-30T10:19:01;101174.66;;;19.56;100.00
23261;BME280;11799;47.740;-3.390;2023-08-30T10:21:29;101176.66;;;19.62;100.00
23261;BME280;11799;47.740;-3.390;2023-08-30T10:23:55;101179.66;;;19.59;100.00
23261;BME280;11799;47.740;-3.390;2023-08-30T10:26:26;101178.16;;;19.56;100.00
23261;BME280;11799;47.740;-3.390;2023-08-30T10:28:54;101174.81;;;19.62;100.00
23261;BME280;11799;47.740;-3.390;2023-08-30T10:31:20;101172.13;;;19.62;100.00
23261;BME280;11799;47.740;-3.390;2023-08-30T10:33:52;101168.91;;;19.67;100.00
23261;BME280;11799;47.740;-3.390;2023-08-30T10:36:24;101165.22;;;19.68;100.00
23261;BME280;11799;47.740;-3.390;2023-08-30T10:38:51;101167.91;;;19.68;100.00
23261;BME280;11799;47.740;-3.390;2023-08-30T10:41:25;101167.06;;;19.67;100.00
23261;BME280;11799;47.740;-3.390;2023-08-30T10:43:52;101164.09;;;19.62;100.00
23261;BME280;11799;47.740;-3.390;2023-08-30T10:46:33;101157.38;;;19.50;100.00
23261;BME280;11799;47.740;-3.390;2023-08-30T10:49:12;101165.75;;;19.47;100.00
23261;BME280;11799;47.740;-3.390;2023-08-30T10:51:41;101148.84;;;19.46;100.00
23261;BME280;11799;47.740;-3.390;2023-08-30T10:54:16;101151.69;;;19.61;100.00
23261;BME280;11799;47.740;-3.390;2023-08-30T10:56:47;101151.00;;;19.67;100.00
23261;BME280;11799;47.740;-3.390;2023-08-30T10:59:20;101127.41;;;19.63;100.00
23261;BME280;11799;47.740;-3.390;2023-08-30T11:01:47;101149.31;;;19.66;100.00
23261;BME280;11799;47.740;-3.390;2023-08-30T11:04:17;101152.50;;;19.70;100.00
23261;BME280;11799;47.740;-3.390;2023-08-30T11:06:47;101144.63;;;19.68;100.00
23261;BME280;11799;47.740;-3.390;2023-08-30T11:09:18;101136.94;;;19.65;100.00
23261;BME280;11799;47.740;-3.390;2023-08-30T11:11:48;101120.56;;;19.60;100.00
23261;BME280;11799;47.740;-3.390;2023-08-30T11:14:14;101105.50;;;19.59;100.00
23261;BME280;11799;47.740;-3.390;2023-08-30T11:16:41;101118.00;;;19.67;100.00
23261;BME280;11799;47.740;-3.390;2023-08-30T11:19:08;101123.66;;;19.80;100.00
23261;BME280;11799;47.740;-3.390;2023-08-30T11:21:37;101119.13;;;19.89;100.00
23261;BME280;11799;47.740;-3.390;2023-08-30T11:24:04;101116.94;;;19.92;100.00
23261;BME280;11799;47.740;-3.390;2023-08-30T11:26:29;101124.97;;;19.92;100.00
23261;BME280;11799;47.740;-3.390;2023-08-30T11:28:55;101119.97;;;19.89;100.00
23261;BME280;11799;47.740;-3.390;2023-08-30T11:31:24;101120.78;;;19.90;100.00
23261;BME280;11799;47.740;-3.390;2023-08-30T11:33:54;101106.09;;;19.77;100.00
23261;BME280;11799;47.740;-3.390;2023-08-30T11:36:28;101121.31;;;19.85;100.00
23261;BME280;11799;47.740;-3.390;2023-08-30T11:38:54;101121.97;;;19.87;100.00
23261;BME280;11799;47.740;-3.390;2023-08-30T11:41:20;101122.47;;;19.91;100.00
23261;BME280;11799;47.740;-3.390;2023-08-30T11:43:47;101127.50;;;19.94;100.00
23261;BME280;11799;47.740;-3.390;2023-08-30T11:46:13;101098.22;;;19.76;100.00
23261;BME280;11799;47.740;-3.390;2023-08-30T11:48:41;101113.75;;;19.89;100.00
23261;BME280;11799;47.740;-3.390;2023-08-30T11:51:08;101126.97;;;19.98;100.00
23261;BME280;11799;47.740;-3.390;2023-08-30T11:53:34;101112.06;;;19.96;100.00
23261;BME280;11799;47.740;-3.390;2023-08-30T11:56:00;101118.94;;;19.98;100.00
23261;BME280;11799;47.740;-3.390;2023-08-30T11:58:26;101126.25;;;20.13;100.00
23261;BME280;11799;47.740;-3.390;2023-08-30T12:00:55;101119.34;;;20.18;100.00
23261;BME280;11799;47.740;-3.390;2023-08-30T12:03:21;101123.22;;;20.16;100.00
23261;BME280;11799;47.740;-3.390;2023-08-30T12:05:50;101118.22;;;20.13;100.00
23261;BME280;11799;47.740;-3.390;2023-08-30T12:08:27;101117.50;;;20.19;100.00
23261;BME280;11799;47.740;-3.390;2023-08-30T12:10:54;101138.63;;;20.22;100.00
23261;BME280;11799;47.740;-3.390;2023-08-30T12:13:25;101132.63;;;20.11;100.00
23261;BME280;11799;47.740;-3.390;2023-08-30T12:15:54;101126.94;;;20.06;100.00
23261;BME280;11799;47.740;-3.390;2023-08-30T12:18:24;101131.03;;;20.25;100.00
23261;BME280;11799;47.740;-3.390;2023-08-30T12:21:13;101130.81;;;20.35;100.00
23261;BME280;11799;47.740;-3.390;2023-08-30T12:23:38;101113.06;;;20.34;100.00
23261;BME280;11799;47.740;-3.390;2023-08-30T12:26:11;101092.78;;;20.31;100.00
23261;BME280;11799;47.740;-3.390;2023-08-30T12:28:39;101097.44;;;20.46;100.00
23261;BME280;11799;47.740;-3.390;2023-08-30T12:31:05;101107.09;;;20.55;100.00
23261;BME280;11799;47.740;-3.390;2023-08-30T12:33:31;101096.44;;;20.47;100.00